createdAt,value
2018-12-22T00:02:09.800Z,71.60
2018-12-22T00:04:38.366Z,70.90
2018-12-22T00:07:07.029Z,70.77
2018-12-22T00:09:35.621Z,66.07
2018-12-22T00:12:04.311Z,67.33
2018-12-22T00:14:32.965Z,72.37
2018-12-22T00:17:01.563Z,65.47
2018-12-22T00:19:30.156Z,65.20
2018-12-22T00:21:58.721Z,68.37
2018-12-22T00:24:27.326Z,65.20
2018-12-22T00:26:55.926Z,68.33
2018-12-22T00:29:24.562Z,62.67
2018-12-22T00:31:53.167Z,63.57
2018-12-22T00:34:21.740Z,63.50
2018-12-22T00:36:50.343Z,63.27
2018-12-22T00:39:18.952Z,64.83
2018-12-22T00:41:47.566Z,68.00
2018-12-22T00:44:16.231Z,66.70
2018-12-22T00:46:44.845Z,63.63
2018-12-22T00:49:13.409Z,67.87
2018-12-22T00:51:41.989Z,65.93
2018-12-22T00:54:41.668Z,66.00
2018-12-22T00:57:10.341Z,64.57
2018-12-22T00:59:38.939Z,77.63
2018-12-22T01:02:07.550Z,72.00
2018-12-22T01:04:36.124Z,70.03
2018-12-22T01:07:04.697Z,68.67
2018-12-22T01:09:33.320Z,68.07
2018-12-22T01:12:01.920Z,73.53
2018-12-22T01:14:30.510Z,67.83
2018-12-22T01:17:03.241Z,64.60
2018-12-22T01:19:31.822Z,67.27
2018-12-22T01:22:00.463Z,68.23
2018-12-22T01:24:29.104Z,64.07
2018-12-22T01:26:57.707Z,69.20
2018-12-22T01:29:26.290Z,66.53
2018-12-22T01:31:54.839Z,66.10
2018-12-22T01:34:23.464Z,61.97
2018-12-22T01:36:52.083Z,63.53
2018-12-22T01:39:20.643Z,58.97
2018-12-22T01:41:49.262Z,58.17
2018-12-22T01:44:17.855Z,64.73
2018-12-22T01:46:46.434Z,71.20
2018-12-22T01:49:15.068Z,59.43
2018-12-22T01:51:43.766Z,60.20
2018-12-22T01:54:12.418Z,60.80
2018-12-22T01:56:41.011Z,56.63
2018-12-22T01:59:09.625Z,61.97
2018-12-22T02:01:38.227Z,58.43
2018-12-22T02:04:06.800Z,62.37
2018-12-22T02:06:36.529Z,56.47
2018-12-22T02:09:07.206Z,59.73
2018-12-22T02:11:35.820Z,55.97
2018-12-22T02:14:04.667Z,56.90
2018-12-22T02:16:33.345Z,55.43
2018-12-22T02:19:01.914Z,58.37
2018-12-22T02:21:30.528Z,55.20
2018-12-22T02:23:59.105Z,54.30
2018-12-22T02:26:27.699Z,54.93
2018-12-22T02:28:56.862Z,54.10
2018-12-22T02:31:25.671Z,54.37
2018-12-22T02:33:54.224Z,57.40
2018-12-22T02:36:22.863Z,56.63
2018-12-22T02:38:51.416Z,57.40
2018-12-22T02:41:20.082Z,58.97
2018-12-22T02:43:48.639Z,56.67
2018-12-22T02:46:17.202Z,58.83
2018-12-22T02:48:45.791Z,54.50
2018-12-22T02:51:14.357Z,58.67
2018-12-22T02:53:42.920Z,57.60
2018-12-22T02:56:11.489Z,55.43
2018-12-22T02:58:40.086Z,57.63
2018-12-22T03:01:08.676Z,56.90
2018-12-22T03:03:37.424Z,58.03
2018-12-22T03:06:05.972Z,61.20
2018-12-22T03:08:34.528Z,56.90
2018-12-22T03:11:03.144Z,58.40
2018-12-22T03:13:31.748Z,59.33
2018-12-22T03:16:00.410Z,56.67
2018-12-22T03:18:29.001Z,55.80
2018-12-22T03:20:57.570Z,53.00
2018-12-22T03:23:26.206Z,53.53
2018-12-22T03:25:54.734Z,53.77
2018-12-22T03:28:23.374Z,52.70
2018-12-22T03:30:51.961Z,51.07
2018-12-22T03:33:20.613Z,53.20
2018-12-22T03:35:49.905Z,55.07
2018-12-22T03:38:18.520Z,53.07
2018-12-22T03:40:47.122Z,54.30
2018-12-22T03:43:15.700Z,53.10
2018-12-22T03:45:44.255Z,51.40
2018-12-22T03:48:12.918Z,51.83
2018-12-22T03:50:41.525Z,50.73
2018-12-22T03:53:10.107Z,56.63
2018-12-22T03:55:38.680Z,61.57
2018-12-22T03:58:07.270Z,53.77
2018-12-22T04:00:35.852Z,52.80
2018-12-22T04:03:04.397Z,52.03
2018-12-22T04:05:33.015Z,54.97
2018-12-22T04:08:01.607Z,55.10
2018-12-22T04:10:30.242Z,54.97
2018-12-22T04:12:58.767Z,57.60
2018-12-22T04:15:27.428Z,55.77
2018-12-22T04:17:56.020Z,56.50
2018-12-22T04:20:24.618Z,53.73
2018-12-22T04:22:53.159Z,53.80
2018-12-22T04:25:21.775Z,54.07
2018-12-22T04:27:50.547Z,53.47
2018-12-22T04:30:19.233Z,52.97
2018-12-22T04:32:47.840Z,53.53
2018-12-22T04:35:16.429Z,54.93
2018-12-22T04:37:44.973Z,52.40
2018-12-22T04:40:13.545Z,52.40
2018-12-22T04:42:42.068Z,52.50
2018-12-22T04:45:10.647Z,55.40
2018-12-22T04:47:40.107Z,54.13
2018-12-22T04:50:08.805Z,51.67
2018-12-22T04:52:37.404Z,51.17
2018-12-22T04:55:06.308Z,52.77
2018-12-22T04:57:34.996Z,52.53
2018-12-22T05:00:09.810Z,51.97
2018-12-22T05:02:38.411Z,55.80
2018-12-22T05:05:07.183Z,50.30
2018-12-22T05:07:35.776Z,53.03
2018-12-22T05:10:04.764Z,52.63
2018-12-22T05:12:33.401Z,52.27
2018-12-22T05:15:01.990Z,53.03
2018-12-22T05:17:30.544Z,51.77
2018-12-22T05:19:59.097Z,53.37
2018-12-22T05:22:27.912Z,53.60
2018-12-22T05:24:56.455Z,55.77
2018-12-22T05:27:25.003Z,52.90
2018-12-22T05:29:53.571Z,54.27
2018-12-22T05:32:22.237Z,52.97
2018-12-22T05:34:50.862Z,53.33
2018-12-22T05:37:19.481Z,54.40
2018-12-22T05:39:48.091Z,52.03
2018-12-22T05:42:16.711Z,54.17
2018-12-22T05:44:45.280Z,51.97
2018-12-22T05:47:13.868Z,56.73
2018-12-22T05:49:42.520Z,57.03
2018-12-22T05:52:11.112Z,56.93
2018-12-22T05:54:39.728Z,57.63
2018-12-22T05:57:08.263Z,58.30
2018-12-22T05:59:36.826Z,57.50
2018-12-22T06:02:05.426Z,57.13
2018-12-22T06:04:34.050Z,53.70
2018-12-22T06:07:03.105Z,57.53
2018-12-22T06:09:31.672Z,52.77
2018-12-22T06:12:00.302Z,56.83
2018-12-22T06:14:28.865Z,54.63
2018-12-22T06:16:57.442Z,54.17
2018-12-22T06:19:26.052Z,48.40
2018-12-22T06:21:54.655Z,49.87
2018-12-22T06:24:23.179Z,50.17
2018-12-22T06:26:51.742Z,47.80
2018-12-22T06:29:21.378Z,51.30
2018-12-22T06:31:49.991Z,51.03
2018-12-22T06:34:18.618Z,50.23
2018-12-22T06:36:47.545Z,50.27
2018-12-22T06:39:16.055Z,48.33
2018-12-22T06:41:44.658Z,48.23
2018-12-22T06:44:13.768Z,47.63
2018-12-22T06:46:43.259Z,47.27
2018-12-22T06:49:13.405Z,48.50
2018-12-22T06:51:42.124Z,49.97
2018-12-22T06:54:10.745Z,51.20
2018-12-22T06:56:39.473Z,51.93
2018-12-22T06:59:08.115Z,52.50
2018-12-22T07:01:36.665Z,49.87
2018-12-22T07:04:05.247Z,53.27
2018-12-22T07:06:33.832Z,52.43
2018-12-22T07:09:02.431Z,52.93
2018-12-22T07:11:30.988Z,54.17
2018-12-22T07:13:59.653Z,50.73
2018-12-22T07:16:28.241Z,53.03
2018-12-22T07:18:56.805Z,51.47
2018-12-22T07:21:25.579Z,55.13
2018-12-22T07:23:54.136Z,52.77
2018-12-22T07:26:22.707Z,53.43
2018-12-22T07:28:52.784Z,52.73
2018-12-22T07:31:21.438Z,58.37
2018-12-22T07:33:50.409Z,58.87
2018-12-22T07:36:19.413Z,58.73
2018-12-22T07:38:48.277Z,59.53
2018-12-22T07:41:18.737Z,61.57
2018-12-22T07:43:47.529Z,58.40
2018-12-22T07:46:18.121Z,57.30
2018-12-22T07:48:47.057Z,56.03
2018-12-22T07:51:15.862Z,55.47
2018-12-22T07:53:44.674Z,57.77
2018-12-22T07:56:13.772Z,59.97
2018-12-22T07:58:43.662Z,54.30
2018-12-22T08:01:13.300Z,54.53
2018-12-22T08:03:42.235Z,56.93
2018-12-22T08:06:12.058Z,84.60
2018-12-22T08:08:41.214Z,60.17
2018-12-22T08:11:09.879Z,58.37
2018-12-22T08:13:41.141Z,60.97
2018-12-22T08:16:09.847Z,65.33
2018-12-22T08:18:39.067Z,63.60
2018-12-22T08:21:07.779Z,69.23
2018-12-22T08:23:36.552Z,68.93
2018-12-22T08:26:05.935Z,71.97
2018-12-22T08:28:35.407Z,80.37
2018-12-22T08:31:04.427Z,85.17
2018-12-22T08:33:33.149Z,85.80
2018-12-22T08:36:02.209Z,80.47
2018-12-22T08:38:31.349Z,90.10
2018-12-22T08:41:00.202Z,86.37
2018-12-22T08:43:29.790Z,89.00
2018-12-22T08:45:58.998Z,87.47
2018-12-22T08:48:27.779Z,88.00
2018-12-22T08:50:57.529Z,91.43
2018-12-22T08:53:27.224Z,97.13
2018-12-22T08:55:56.000Z,93.40
2018-12-22T08:58:25.727Z,94.27
2018-12-22T09:00:54.478Z,117.93
2018-12-22T09:03:23.138Z,90.67
2018-12-22T09:05:52.407Z,91.93
2018-12-22T09:08:21.316Z,87.67
2018-12-22T09:10:50.182Z,88.50
2018-12-22T09:13:20.984Z,87.80
2018-12-22T09:15:50.103Z,85.60
2018-12-22T09:18:19.171Z,85.60
2018-12-22T09:20:47.933Z,86.60
2018-12-22T09:23:16.847Z,85.77
2018-12-22T09:25:45.475Z,85.77
2018-12-22T09:28:15.056Z,87.87
2018-12-22T09:30:44.023Z,87.00
2018-12-22T09:33:12.967Z,83.97
2018-12-22T09:35:41.612Z,83.60
2018-12-22T09:38:10.483Z,85.50
2018-12-22T09:40:39.456Z,86.50
2018-12-22T09:43:08.474Z,87.57
2018-12-22T09:45:37.149Z,94.30
2018-12-22T09:48:07.319Z,93.73
2018-12-22T09:50:36.983Z,97.77
2018-12-22T09:53:05.671Z,97.63
2018-12-22T09:55:34.972Z,94.17
2018-12-22T09:58:04.529Z,98.50
2018-12-22T10:00:34.857Z,101.50
2018-12-22T10:03:03.837Z,99.90
2018-12-22T10:05:34.691Z,103.20
2018-12-22T10:08:03.353Z,100.53
2018-12-22T10:10:32.214Z,103.90
2018-12-22T10:13:00.999Z,100.87
2018-12-22T10:15:30.316Z,99.47
2018-12-22T10:18:00.017Z,102.17
2018-12-22T10:20:29.102Z,101.03
2018-12-22T10:22:58.032Z,100.93
2018-12-22T10:25:27.388Z,104.17
2018-12-22T10:27:56.537Z,101.57
2018-12-22T10:30:25.366Z,106.90
2018-12-22T10:32:54.500Z,108.67
2018-12-22T10:35:28.887Z,106.63
2018-12-22T10:37:57.891Z,108.23
2018-12-22T10:40:27.465Z,104.57
2018-12-22T10:42:56.398Z,107.77
2018-12-22T10:46:28.486Z,109.27
2018-12-22T10:48:57.240Z,107.40
2018-12-22T10:51:26.135Z,104.20
2018-12-22T10:53:55.036Z,106.30
2018-12-22T10:56:23.820Z,107.40
2018-12-22T10:58:53.067Z,109.97
2018-12-22T11:01:26.398Z,111.63
2018-12-22T11:03:53.604Z,108.33
2018-12-22T11:06:22.211Z,109.57
2018-12-22T11:08:51.512Z,111.10
2018-12-22T11:11:20.692Z,113.50
2018-12-22T11:13:49.521Z,111.70
2018-12-22T11:16:18.690Z,115.50
2018-12-22T11:18:48.549Z,114.67
2018-12-22T11:21:17.158Z,114.40
2018-12-22T11:23:46.430Z,112.50
2018-12-22T11:26:15.692Z,115.33
2018-12-22T11:28:46.339Z,113.33
2018-12-22T11:31:16.072Z,118.37
2018-12-22T11:33:44.737Z,117.63
2018-12-22T11:36:13.347Z,120.63
2018-12-22T11:38:42.269Z,119.43
2018-12-22T11:41:11.183Z,118.37
2018-12-22T11:43:39.883Z,118.60
2018-12-22T11:46:09.229Z,120.03
2018-12-22T11:49:53.544Z,120.80
2018-12-22T11:52:23.133Z,119.50
2018-12-22T11:54:51.869Z,120.20
2018-12-22T11:57:21.425Z,120.20
2018-12-22T11:59:51.064Z,121.43
2018-12-22T12:02:20.031Z,119.00
2018-12-22T12:04:49.021Z,118.23
2018-12-22T12:07:18.355Z,116.87
2018-12-22T12:09:47.566Z,116.20
2018-12-22T12:12:16.360Z,115.87
2018-12-22T12:14:45.776Z,114.30
2018-12-22T12:17:38.243Z,112.90
2018-12-22T12:20:08.558Z,110.30
2018-12-22T12:22:38.620Z,111.37
2018-12-22T12:25:08.094Z,109.50
2018-12-22T12:27:36.674Z,112.70
2018-12-22T12:30:18.041Z,111.37
2018-12-22T12:32:48.578Z,113.13
2018-12-22T12:35:18.302Z,111.17
2018-12-22T12:37:47.063Z,108.93
2018-12-22T12:40:18.480Z,106.80
2018-12-22T12:42:47.307Z,111.70
2018-12-22T12:45:15.938Z,101.07
2018-12-22T12:47:46.064Z,112.73
2018-12-22T12:50:19.312Z,103.13
2018-12-22T12:52:48.215Z,102.27
2018-12-22T12:55:16.892Z,90.10
2018-12-22T12:57:45.723Z,87.87
2018-12-22T13:00:16.207Z,76.30
2018-12-22T13:02:46.536Z,80.53
2018-12-22T13:05:15.274Z,87.23
2018-12-22T13:07:44.405Z,84.33
2018-12-22T13:10:14.878Z,87.17
2018-12-22T14:14:26.906Z,138.10
2018-12-22T14:17:07.044Z,127.63
2018-12-22T14:19:35.939Z,131.63
2018-12-22T14:22:05.398Z,130.43
2018-12-22T14:24:38.317Z,133.57
2018-12-22T14:27:06.954Z,124.73
2018-12-22T14:29:35.616Z,121.93
2018-12-22T14:32:04.307Z,122.13
2018-12-22T14:34:51.641Z,121.97
2018-12-22T14:37:20.251Z,120.00
2018-12-22T14:39:48.810Z,122.20
2018-12-22T14:42:17.441Z,126.33
2018-12-22T14:44:46.048Z,124.60
2018-12-22T14:47:14.593Z,121.63
2018-12-22T14:49:43.175Z,130.33
2018-12-22T14:52:11.724Z,125.50
2018-12-22T14:54:40.301Z,127.27
2018-12-22T14:57:08.913Z,124.23
2018-12-22T14:59:38.538Z,127.53
2018-12-22T15:02:07.896Z,133.90
2018-12-22T15:04:37.066Z,135.10
2018-12-22T15:07:06.834Z,128.47
2018-12-22T15:16:21.958Z,123.00
2018-12-22T15:18:50.571Z,127.73
2018-12-22T15:21:19.177Z,128.17
2018-12-22T15:23:47.831Z,125.53
2018-12-22T15:26:16.414Z,123.53
2018-12-22T15:28:47.302Z,136.20
2018-12-22T15:31:15.666Z,123.27
2018-12-22T15:33:44.276Z,125.77
2018-12-22T15:36:12.932Z,122.40
2018-12-22T15:38:41.518Z,119.83
2018-12-22T15:41:10.815Z,119.03
2018-12-22T15:43:39.473Z,121.23
2018-12-22T15:46:08.406Z,125.03
2018-12-22T15:48:36.995Z,125.43
2018-12-22T15:51:05.620Z,126.70
2018-12-22T15:53:34.370Z,133.43
2018-12-22T15:56:02.940Z,131.63
2018-12-22T15:58:31.541Z,143.03
2018-12-22T16:01:00.128Z,134.70
2018-12-22T16:03:28.723Z,123.60
2018-12-22T16:05:57.319Z,114.53
2018-12-22T16:08:25.900Z,117.43
2018-12-22T16:10:54.462Z,114.03
2018-12-22T16:13:23.048Z,115.20
2018-12-22T16:15:51.596Z,112.60
2018-12-22T16:18:20.259Z,113.03
2018-12-22T16:20:48.872Z,117.77
2018-12-22T16:23:17.507Z,119.13
2018-12-22T16:25:46.109Z,115.43
2018-12-22T16:28:21.752Z,119.87
2018-12-22T16:30:53.429Z,121.40
2018-12-22T16:33:22.109Z,123.27
2018-12-22T16:35:50.821Z,116.07
2018-12-22T16:38:19.638Z,120.63
2018-12-22T16:40:48.728Z,122.47
2018-12-22T16:43:19.953Z,118.10
2018-12-22T16:45:50.782Z,119.57
2018-12-22T16:48:21.783Z,120.23
2018-12-22T16:50:50.452Z,121.63
2018-12-22T16:53:19.053Z,127.20
2018-12-22T16:55:47.695Z,122.03
2018-12-22T16:58:31.203Z,122.03
2018-12-22T17:01:06.801Z,118.70
2018-12-22T17:03:35.664Z,122.20
2018-12-22T17:06:06.491Z,131.73
2018-12-22T17:08:35.215Z,126.77
2018-12-22T17:11:05.383Z,115.70
2018-12-22T17:13:33.983Z,116.67
2018-12-22T17:16:03.204Z,116.80
2018-12-22T17:18:31.809Z,111.67
2018-12-22T17:21:08.846Z,111.63
2018-12-22T17:23:57.223Z,110.93
2018-12-22T17:26:28.568Z,111.63
2018-12-22T17:28:57.187Z,108.67
2018-12-22T17:31:25.891Z,111.83
2018-12-22T17:33:54.490Z,108.57
2018-12-22T17:39:55.972Z,101.67
2018-12-22T17:42:24.769Z,104.40
2018-12-22T17:44:53.359Z,102.23
2018-12-22T17:47:22.000Z,100.63
2018-12-22T17:49:50.568Z,101.97
2018-12-22T17:52:19.160Z,98.97
2018-12-22T17:54:47.774Z,101.27
2018-12-22T17:57:16.668Z,101.00
2018-12-22T17:59:45.381Z,101.60
2018-12-22T18:02:14.067Z,100.37
2018-12-22T18:04:42.718Z,103.00
2018-12-22T18:07:11.370Z,94.07
2018-12-22T18:09:39.972Z,95.77
2018-12-22T18:12:08.640Z,98.27
2018-12-22T18:14:37.258Z,95.80
2018-12-22T18:17:05.896Z,98.73
2018-12-22T18:19:34.598Z,95.50
2018-12-22T18:22:03.280Z,93.70
2018-12-22T18:24:31.953Z,91.73
2018-12-22T18:27:00.601Z,98.27
2018-12-22T18:29:29.170Z,103.03
2018-12-22T18:31:57.775Z,114.43
2018-12-22T18:34:26.427Z,109.87
2018-12-22T18:36:54.994Z,103.50
2018-12-22T18:39:23.623Z,116.97
2018-12-22T18:41:52.224Z,114.17
2018-12-22T18:44:20.834Z,113.13
2018-12-22T18:46:49.502Z,116.57
2018-12-22T18:49:18.121Z,114.43
2018-12-22T18:51:46.790Z,114.43
2018-12-22T18:54:15.627Z,111.00
2018-12-22T18:56:44.273Z,113.97
2018-12-22T18:59:13.123Z,115.87
2018-12-22T19:01:41.735Z,113.47
2018-12-22T19:04:10.302Z,115.23
2018-12-22T19:06:39.234Z,115.93
2018-12-22T19:09:11.711Z,109.77
2018-12-22T19:11:40.336Z,112.20
2018-12-22T19:14:08.922Z,110.23
2018-12-22T19:16:37.545Z,112.57
2018-12-22T19:19:36.736Z,120.37
2018-12-22T19:22:05.406Z,132.43
2018-12-22T19:24:34.077Z,129.47
2018-12-22T19:27:02.728Z,127.00
2018-12-22T19:29:31.372Z,132.63
2018-12-22T19:31:59.914Z,137.30
2018-12-22T19:34:28.456Z,138.80
2018-12-22T19:36:57.065Z,138.13
2018-12-22T19:39:25.664Z,144.60
2018-12-22T19:41:54.288Z,138.67
2018-12-22T19:44:22.902Z,139.50
2018-12-22T19:46:51.690Z,135.93
2018-12-22T19:49:20.244Z,134.63
2018-12-22T19:51:48.862Z,134.90
2018-12-22T19:54:17.568Z,137.63
2018-12-22T19:56:46.163Z,130.23
2018-12-22T19:59:14.717Z,127.30
2018-12-22T20:01:43.304Z,125.77
2018-12-22T20:04:11.964Z,128.90
2018-12-22T20:06:40.805Z,133.93
2018-12-22T20:09:09.385Z,138.97
2018-12-22T20:11:38.148Z,137.30
2018-12-22T20:14:06.831Z,136.20
2018-12-22T20:16:35.471Z,134.20
2018-12-22T20:19:04.064Z,133.37
2018-12-22T20:21:32.636Z,126.03
2018-12-22T20:24:01.277Z,133.87
2018-12-22T20:26:30.239Z,136.60
2018-12-22T20:28:58.850Z,131.47
2018-12-22T20:31:28.176Z,128.70
2018-12-22T20:33:56.708Z,125.03
2018-12-22T20:36:25.389Z,126.13
2018-12-22T20:38:53.925Z,115.50
2018-12-22T20:41:22.525Z,122.60
2018-12-22T20:43:51.783Z,105.97
2018-12-22T20:46:20.429Z,126.13
2018-12-22T20:48:49.365Z,122.00
2018-12-22T20:51:17.985Z,125.50
2018-12-22T20:53:46.620Z,126.30
2018-12-22T20:56:15.241Z,128.37
2018-12-22T20:58:43.846Z,136.10
2018-12-22T21:01:12.399Z,132.97
2018-12-22T21:03:41.693Z,125.90
2018-12-22T21:06:18.571Z,129.80
2018-12-22T21:08:47.191Z,130.77
2018-12-22T21:11:15.823Z,130.07
2018-12-22T21:13:44.524Z,135.63
2018-12-22T21:16:13.135Z,133.33
2018-12-22T21:18:41.736Z,134.53
2018-12-22T21:21:10.324Z,138.13
2018-12-22T21:23:38.928Z,135.87
2018-12-22T21:26:07.567Z,131.87
2018-12-22T21:28:38.069Z,131.93
2018-12-22T21:31:06.783Z,125.93
2018-12-22T21:33:35.331Z,123.60
2018-12-22T21:36:03.973Z,126.80
2018-12-22T21:38:32.581Z,125.47
2018-12-22T21:41:01.224Z,113.67
2018-12-22T21:43:29.787Z,111.93
2018-12-22T21:45:58.353Z,114.83
2018-12-22T21:48:26.944Z,114.17
2018-12-22T21:50:55.520Z,118.67
2018-12-22T21:53:24.156Z,119.23
2018-12-22T21:55:52.671Z,120.73
2018-12-22T21:58:21.227Z,123.40
2018-12-22T22:00:49.814Z,124.93
2018-12-22T22:03:18.429Z,124.53
2018-12-22T22:05:47.093Z,125.93
2018-12-22T22:08:15.867Z,125.73
2018-12-22T22:10:44.518Z,122.90
2018-12-22T22:13:13.123Z,120.43
2018-12-22T22:15:41.777Z,120.80
2018-12-22T22:18:10.379Z,117.97
2018-12-22T22:20:38.981Z,117.67
2018-12-22T22:23:07.611Z,115.67
2018-12-22T22:25:36.555Z,115.60
2018-12-22T22:28:05.087Z,116.63
2018-12-22T22:30:33.678Z,115.23
2018-12-22T22:33:02.256Z,109.33
2018-12-22T22:35:30.837Z,112.67
2018-12-22T22:37:59.467Z,99.60
2018-12-22T22:40:28.105Z,119.80
2018-12-22T22:42:56.759Z,117.10
2018-12-22T22:45:25.375Z,114.20
2018-12-22T22:47:53.994Z,114.27
2018-12-22T22:50:22.511Z,119.00
2018-12-22T22:52:51.075Z,120.23
2018-12-22T22:55:19.611Z,114.43
2018-12-22T22:57:48.351Z,121.87
2018-12-22T23:00:27.275Z,136.17
2018-12-22T23:02:56.445Z,132.90
2018-12-22T23:05:24.997Z,127.13
2018-12-22T23:07:53.594Z,139.07
2018-12-22T23:10:22.390Z,151.47
2018-12-22T23:12:51.218Z,175.70
2018-12-22T23:15:19.819Z,174.17
2018-12-22T23:17:48.415Z,184.23
2018-12-22T23:20:16.966Z,185.73
2018-12-22T23:22:45.768Z,186.27
2018-12-22T23:25:14.398Z,163.47
2018-12-22T23:27:42.959Z,150.90
2018-12-22T23:30:11.604Z,153.57
2018-12-22T23:32:40.183Z,143.20
2018-12-22T23:35:08.740Z,153.90
2018-12-22T23:37:37.335Z,146.23
2018-12-22T23:40:06.059Z,149.50
2018-12-22T23:42:34.612Z,145.23
2018-12-22T23:45:03.247Z,135.83
2018-12-22T23:47:31.816Z,132.53
2018-12-22T23:50:00.397Z,128.07
2018-12-22T23:52:29.011Z,122.50
2018-12-22T23:54:57.592Z,118.27
2018-12-22T23:57:26.179Z,122.53
2018-12-22T23:59:54.749Z,100.17
